Shademore, Ohio
Current Conditions -  °F | °C
As of 10:14 AM on Friday 24 Oct 2014 (Local Time) from KLUK Reporting Station
Haze Haze  
Wind Chill: 47°   Ceiling: Unl
Heat Index: 47°   Visibility: 5mi
Dew Point: 45°   Wind: 3mph
Humidity: 93%   Direction: NA
Pressure: 30.15"   Gusts: NA
Location:  39.1204°N, 84.3269°W
Report Text: KLUK 241414Z VRB03KT 5SM BR FEW002 08/07 A3015 RMK AO2 T00830072
Loading
Personal Weather Stations






























Interactive Weather Map
Tropical Storm Tracking
New forecast layout! Learn more

10-Day Weather Forecast

Advertisements
Track Severe Weather on mobile